Time;durP1;ratioP1;P1;durP2;ratioP2;P2;SDS_P1;SDS_P2;PMS_P1;PMS_P2;Temp;Humidity;BMP_temperature;BMP_pressure;BME280_temperature;BME280_humidity;BME280_pressure;Samples;Min_cycle;Max_cycle;Signal;HPM_P1;HPM_P2
2023/03/20 00:00:40;;;;;;;6.30;2.22;;;;;;;;;;4990199;28;93890;-77
2023/03/20 00:03:08;;;;;;;10.35;2.80;;;;;;;;;;4977073;28;94754;-78
2023/03/20 00:05:35;;;;;;;8.23;2.10;;;;;;;;;;5007351;28;93518;-76
2023/03/20 00:08:02;;;;;;;6.50;2.22;;;;;;;;;;4992582;28;93857;-76
2023/03/20 00:10:37;;;;;;;6.40;2.20;;;;;;;;;;4979382;28;93042;-76
2023/03/20 00:13:04;;;;;;;7.03;1.98;;;;;;;;;;4965593;28;97132;-75
2023/03/20 00:15:33;;;;;;;8.88;2.33;;;;;;;;;;4968539;28;92451;-75
2023/03/20 00:18:00;;;;;;;6.55;2.42;;;;;;;;;;4972192;28;94111;-76
2023/03/20 00:20:27;;;;;;;7.75;2.30;;;;;;;;;;5008433;28;92484;-76
2023/03/20 00:22:54;;;;;;;8.25;2.10;;;;;;;;;;4972041;28;92336;-76
2023/03/20 00:25:23;;;;;;;6.93;1.95;;;;;;;;;;4979432;28;92874;-76
2023/03/20 00:27:50;;;;;;;6.30;2.00;;;;;;;;;;4968881;28;95831;-76
2023/03/20 00:30:22;;;;;;;8.82;2.65;;;;;;;;;;4972243;28;94808;-76
2023/03/20 00:32:51;;;;;;;11.65;2.42;;;;;;;;;;4965333;28;93612;-76
2023/03/20 00:35:22;;;;;;;10.15;2.78;;;;;;;;;;5007984;28;92523;-77
2023/03/20 00:37:50;;;;;;;11.18;2.35;;;;;;;;;;4971389;28;92710;-77
2023/03/20 00:40:17;;;;;;;7.60;2.15;;;;;;;;;;4975266;28;95051;-77
2023/03/20 00:42:45;;;;;;;9.23;2.50;;;;;;;;;;4973970;28;95927;-76
2023/03/20 00:45:15;;;;;;;8.00;2.40;;;;;;;;;;4976196;28;95609;-76
2023/03/20 00:47:43;;;;;;;6.53;1.90;;;;;;;;;;4971901;28;93833;-77
2023/03/20 00:50:14;;;;;;;5.05;1.90;;;;;;;;;;4975570;28;94162;-77
2023/03/20 00:52:40;;;;;;;9.23;1.90;;;;;;;;;;4983232;28;97318;-77
2023/03/20 00:55:07;;;;;;;6.68;2.03;;;;;;;;;;4968971;28;92124;-76
2023/03/20 00:57:37;;;;;;;9.00;2.13;;;;;;;;;;4967042;28;91967;-77
2023/03/20 01:00:08;;;;;;;4.90;1.90;;;;;;;;;;4969518;28;94721;-77
2023/03/20 01:02:34;;;;;;;7.00;2.50;;;;;;;;;;4965471;28;92624;-77
2023/03/20 01:05:02;;;;;;;6.70;1.80;;;;;;;;;;4975955;28;98883;-76
2023/03/20 01:07:28;;;;;;;11.57;2.10;;;;;;;;;;4965980;28;92807;-76
2023/03/20 01:09:55;;;;;;;6.55;1.80;;;;;;;;;;4996388;28;91712;-76
2023/03/20 01:12:22;;;;;;;6.90;1.65;;;;;;;;;;5003291;28;93676;-77
2023/03/20 01:14:53;;;;;;;8.43;2.00;;;;;;;;;;4961254;28;92164;-78
2023/03/20 01:17:21;;;;;;;8.85;1.92;;;;;;;;;;4971900;28;94972;-76
2023/03/20 01:19:48;;;;;;;7.15;1.95;;;;;;;;;;4969523;28;93136;-76
2023/03/20 01:22:16;;;;;;;5.88;1.70;;;;;;;;;;4972975;28;92269;-77
2023/03/20 01:24:43;;;;;;;7.72;1.88;;;;;;;;;;4967278;28;95397;-77
2023/03/20 01:27:13;;;;;;;6.32;2.05;;;;;;;;;;4975126;28;92921;-77
2023/03/20 01:29:39;;;;;;;9.20;1.85;;;;;;;;;;4971827;28;92355;-77
2023/03/20 01:32:24;;;;;;;7.78;1.90;;;;;;;;;;4974673;28;95593;-78
2023/03/20 01:34:52;;;;;;;8.52;1.55;;;;;;;;;;5013415;28;91684;-76
2023/03/20 01:37:25;;;;;;;5.22;1.60;;;;;;;;;;4974982;28;93825;-77
2023/03/20 01:39:54;;;;;;;5.70;1.50;;;;;;;;;;4981626;28;95331;-76
2023/03/20 01:42:21;;;;;;;6.70;1.88;;;;;;;;;;4973363;28;95076;-77
2023/03/20 01:44:47;;;;;;;5.40;1.65;;;;;;;;;;4993137;28;97357;-77
2023/03/20 01:47:16;;;;;;;4.55;1.52;;;;;;;;;;4990565;28;95547;-77
2023/03/20 01:50:21;;;;;;;3.85;1.63;;;;;;;;;;4979854;28;92210;-77
2023/03/20 01:52:51;;;;;;;9.02;2.05;;;;;;;;;;4892026;28;95723;-77
2023/03/20 01:55:19;;;;;;;7.20;1.63;;;;;;;;;;4960626;28;94740;-77
2023/03/20 01:57:52;;;;;;;7.03;1.75;;;;;;;;;;4989583;28;95205;-77
2023/03/20 02:00:19;;;;;;;6.43;1.67;;;;;;;;;;4978421;28;93990;-77
2023/03/20 02:02:47;;;;;;;5.78;1.80;;;;;;;;;;4972008;28;92221;-77
2023/03/20 02:05:34;;;;;;;7.55;2.28;;;;;;;;;;4976888;28;93017;-77
2023/03/20 02:08:21;;;;;;;8.23;1.73;;;;;;;;;;4979620;28;96894;-78
2023/03/20 02:10:47;;;;;;;10.35;1.92;;;;;;;;;;4971185;28;92092;-75
2023/03/20 02:13:20;;;;;;;14.90;2.45;;;;;;;;;;4976713;28;95358;-77
2023/03/20 02:15:54;;;;;;;17.38;2.20;;;;;;;;;;4980984;28;95497;-77
2023/03/20 02:18:35;;;;;;;8.50;1.98;;;;;;;;;;4979763;28;94731;-77
2023/03/20 02:21:11;;;;;;;7.78;1.80;;;;;;;;;;4977175;28;98391;-78
2023/03/20 02:23:41;;;;;;;14.15;2.38;;;;;;;;;;4989476;28;92496;-76
2023/03/20 02:26:24;;;;;;;7.05;2.00;;;;;;;;;;4971665;28;93470;-79
2023/03/20 02:29:05;;;;;;;11.98;2.10;;;;;;;;;;4975729;28;95245;-78
2023/03/20 02:31:53;;;;;;;7.05;2.03;;;;;;;;;;4984983;28;92747;-76
2023/03/20 02:34:22;;;;;;;5.88;1.60;;;;;;;;;;4988037;28;95262;-75
2023/03/20 02:37:15;;;;;;;8.38;1.80;;;;;;;;;;4981546;28;95291;-76
2023/03/20 02:39:59;;;;;;;14.48;1.95;;;;;;;;;;4967144;28;93491;-75
2023/03/20 02:42:29;;;;;;;8.52;1.92;;;;;;;;;;4971457;28;94890;-77
2023/03/20 02:45:18;;;;;;;9.77;2.28;;;;;;;;;;4971266;28;92150;-76
2023/03/20 02:47:57;;;;;;;5.68;1.60;;;;;;;;;;4972313;28;94650;-76
2023/03/20 02:50:43;;;;;;;6.63;1.77;;;;;;;;;;4991636;28;94873;-77
2023/03/20 02:53:11;;;;;;;;;;;;;;;;;;4972199;28;93796;-76
2023/03/20 02:55:41;;;;;;;5.20;1.67;;;;;;;;;;4985240;28;93560;-77
2023/03/20 02:58:08;;;;;;;7.03;1.60;;;;;;;;;;4968708;28;94948;-77
2023/03/20 03:00:37;;;;;;;4.82;1.55;;;;;;;;;;5010517;28;94819;-79
2023/03/20 03:03:14;;;;;;;8.13;1.63;;;;;;;;;;4970800;28;97212;-77
2023/03/20 03:05:48;;;;;;;6.68;1.60;;;;;;;;;;4996247;28;92816;-77
2023/03/20 03:08:16;;;;;;;5.45;1.60;;;;;;;;;;4968634;28;99463;-77
2023/03/20 03:10:45;;;;;;;4.75;1.85;;;;;;;;;;5004899;28;94904;-77
2023/03/20 03:13:14;;;;;;;4.35;1.67;;;;;;;;;;4972285;28;92897;-78
2023/03/20 03:15:42;;;;;;;5.45;1.70;;;;;;;;;;5011023;28;94664;-77
2023/03/20 03:18:14;;;;;;;7.10;1.80;;;;;;;;;;4971227;28;94221;-77
2023/03/20 03:20:42;;;;;;;6.13;1.85;;;;;;;;;;4969506;28;92279;-78
2023/03/20 03:23:08;;;;;;;;;;;;;;;;;;4987557;28;93561;-77
2023/03/20 03:25:36;;;;;;;6.03;1.92;;;;;;;;;;4971155;28;124466;-76
2023/03/20 03:28:18;;;;;;;4.82;1.70;;;;;;;;;;4972494;28;96726;-77
2023/03/20 03:30:45;;;;;;;5.93;2.00;;;;;;;;;;4958089;28;93360;-77
2023/03/20 03:33:30;;;;;;;6.20;1.83;;;;;;;;;;5004105;28;93294;-77
2023/03/20 03:35:57;;;;;;;;;;;;;;;;;;4970683;28;96160;-77
2023/03/20 03:38:23;;;;;;;8.23;1.73;;;;;;;;;;4969019;28;122070;-78
2023/03/20 03:41:22;;;;;;;6.35;1.70;;;;;;;;;;4969633;28;92150;-77
2023/03/20 03:43:48;;;;;;;9.02;2.10;;;;;;;;;;4933969;28;95764;-77
2023/03/20 03:46:14;;;;;;;8.38;2.15;;;;;;;;;;4964958;28;93070;-78
2023/03/20 03:48:47;;;;;;;7.53;2.53;;;;;;;;;;4979339;28;92813;-78
2023/03/20 03:51:16;;;;;;;6.07;1.90;;;;;;;;;;4973694;28;95386;-77
2023/03/20 03:54:06;;;;;;;6.85;2.35;;;;;;;;;;4961791;28;92626;-77
2023/03/20 03:56:35;;;;;;;8.95;2.20;;;;;;;;;;4996925;28;94381;-77
2023/03/20 03:59:05;;;;;;;6.95;2.67;;;;;;;;;;5004515;28;97042;-77
2023/03/20 04:01:34;;;;;;;7.28;2.25;;;;;;;;;;4961889;28;92516;-76
2023/03/20 04:04:03;;;;;;;8.50;2.17;;;;;;;;;;4963946;28;94544;-77
2023/03/20 04:06:30;;;;;;;5.35;2.10;;;;;;;;;;4967446;28;95240;-76
2023/03/20 04:08:57;;;;;;;7.47;2.33;;;;;;;;;;4975768;28;91904;-78
2023/03/20 04:11:24;;;;;;;7.63;2.40;;;;;;;;;;4969383;28;91966;-78
2023/03/20 04:13:51;;;;;;;7.32;2.20;;;;;;;;;;4971042;28;92371;-77
2023/03/20 04:16:19;;;;;;;8.65;3.03;;;;;;;;;;4963180;28;95313;-77
2023/03/20 04:18:46;;;;;;;;;;;;;;;;;;4971590;28;94676;-77
2023/03/20 04:21:14;;;;;;;7.65;2.40;;;;;;;;;;4984717;28;92535;-78
2023/03/20 04:23:42;;;;;;;7.97;2.70;;;;;;;;;;4985854;28;95081;-77
2023/03/20 04:26:08;;;;;;;6.82;2.47;;;;;;;;;;4967814;28;92991;-78
2023/03/20 04:28:35;;;;;;;7.03;2.33;;;;;;;;;;4967737;28;92310;-77
2023/03/20 04:31:36;;;;;;;6.88;2.22;;;;;;;;;;4972255;28;94767;-77
2023/03/20 04:34:25;;;;;;;6.93;2.25;;;;;;;;;;4969889;28;91492;-78
2023/03/20 04:37:07;;;;;;;6.55;1.92;;;;;;;;;;5000788;28;99709;-77
2023/03/20 04:39:48;;;;;;;7.90;2.10;;;;;;;;;;4965294;28;94948;-78
2023/03/20 04:42:15;;;;;;;7.63;1.92;;;;;;;;;;4986978;28;94816;-78
2023/03/20 04:44:41;;;;;;;6.03;2.33;;;;;;;;;;4973379;28;97420;-78
2023/03/20 04:47:08;;;;;;;5.85;2.10;;;;;;;;;;5003822;28;95207;-77
2023/03/20 04:49:39;;;;;;;5.45;1.98;;;;;;;;;;4970569;28;92802;-78
2023/03/20 04:52:06;;;;;;;6.30;2.28;;;;;;;;;;4978605;28;94297;-78
2023/03/20 04:54:36;;;;;;;7.78;2.20;;;;;;;;;;4973097;28;95156;-78
2023/03/20 04:57:03;;;;;;;7.82;2.25;;;;;;;;;;4970699;28;94797;-78
2023/03/20 04:59:29;;;;;;;7.00;2.20;;;;;;;;;;4978638;28;94182;-78
2023/03/20 05:01:56;;;;;;;8.18;2.35;;;;;;;;;;4979772;28;92822;-77
2023/03/20 05:04:22;;;;;;;6.53;2.20;;;;;;;;;;4977487;28;95388;-78
2023/03/20 05:06:49;;;;;;;6.22;2.15;;;;;;;;;;4989810;28;97450;-76
2023/03/20 05:09:19;;;;;;;7.22;2.45;;;;;;;;;;4976946;28;92423;-77
2023/03/20 05:11:46;;;;;;;7.93;2.30;;;;;;;;;;5009355;28;94915;-77
2023/03/20 05:14:42;;;;;;;6.57;2.35;;;;;;;;;;4971130;28;94068;-77
2023/03/20 05:17:23;;;;;;;11.65;2.35;;;;;;;;;;4984677;28;92570;-77
2023/03/20 05:20:22;;;;;;;8.05;2.67;;;;;;;;;;4954386;28;93333;-77
2023/03/20 05:23:02;;;;;;;7.05;2.65;;;;;;;;;;4989427;28;92668;-77
2023/03/20 05:25:46;;;;;;;5.82;2.20;;;;;;;;;;4987932;28;94828;-78
2023/03/20 05:28:51;;;;;;;4.97;2.03;;;;;;;;;;4896745;28;92394;-78
2023/03/20 05:31:36;;;;;;;6.63;2.50;;;;;;;;;;4886352;28;93822;-78
2023/03/20 05:34:11;;;;;;;6.03;2.30;;;;;;;;;;4943607;28;95213;-77
2023/03/20 05:36:43;;;;;;;6.28;2.30;;;;;;;;;;4985344;28;94507;-78
2023/03/20 05:39:28;;;;;;;6.85;2.80;;;;;;;;;;4974761;28;92151;-77
2023/03/20 05:42:06;;;;;;;5.00;1.92;;;;;;;;;;4986857;28;92190;-76
2023/03/20 05:44:47;;;;;;;7.03;2.40;;;;;;;;;;4972764;28;92934;-76
2023/03/20 05:47:46;;;;;;;6.28;2.67;;;;;;;;;;4957745;28;94193;-77
2023/03/20 05:50:31;;;;;;;7.45;2.42;;;;;;;;;;4975113;28;93671;-77
2023/03/20 05:53:17;;;;;;;8.93;2.80;;;;;;;;;;4973955;28;91724;-77
2023/03/20 05:56:08;;;;;;;6.20;2.60;;;;;;;;;;4987114;28;94732;-77
2023/03/20 05:58:50;;;;;;;5.95;2.30;;;;;;;;;;4991360;28;95526;-77
2023/03/20 06:01:36;;;;;;;7.15;2.20;;;;;;;;;;4949367;28;94377;-78
2023/03/20 06:04:19;;;;;;;6.25;2.40;;;;;;;;;;4974851;28;96622;-78
2023/03/20 06:07:04;;;;;;;5.75;2.33;;;;;;;;;;4973596;28;98648;-77
2023/03/20 06:09:31;;;;;;;4.97;2.08;;;;;;;;;;4972163;28;92809;-79
2023/03/20 06:11:59;;;;;;;7.28;2.25;;;;;;;;;;4965859;28;95296;-78
2023/03/20 06:14:26;;;;;;;7.13;2.45;;;;;;;;;;4972186;28;92387;-78
2023/03/20 06:16:56;;;;;;;7.93;2.35;;;;;;;;;;4965486;28;94038;-78
2023/03/20 06:19:24;;;;;;;6.13;2.17;;;;;;;;;;5009655;28;92139;-78
2023/03/20 06:21:50;;;;;;;6.22;2.58;;;;;;;;;;4985943;28;92077;-77
2023/03/20 06:24:19;;;;;;;6.07;2.67;;;;;;;;;;4975864;28;92836;-77
2023/03/20 06:26:46;;;;;;;7.80;2.65;;;;;;;;;;4979699;28;97200;-75
2023/03/20 06:29:13;;;;;;;6.78;2.20;;;;;;;;;;4977415;28;92824;-76
2023/03/20 06:31:40;;;;;;;5.95;2.22;;;;;;;;;;4973220;28;95148;-76
2023/03/20 06:34:11;;;;;;;8.13;2.45;;;;;;;;;;4972115;28;92177;-77
2023/03/20 06:36:42;;;;;;;6.55;2.05;;;;;;;;;;4985638;28;95459;-76
2023/03/20 06:39:16;;;;;;;6.32;2.30;;;;;;;;;;4966608;28;94995;-76
2023/03/20 06:41:43;;;;;;;5.90;2.38;;;;;;;;;;4969627;28;92864;-77
2023/03/20 06:44:09;;;;;;;8.23;2.53;;;;;;;;;;5008258;28;95567;-77
2023/03/20 06:46:54;;;;;;;6.57;2.20;;;;;;;;;;4974163;28;92327;-77
2023/03/20 06:49:21;;;;;;;8.00;2.50;;;;;;;;;;5007093;28;92417;-77
2023/03/20 06:51:48;;;;;;;9.13;2.30;;;;;;;;;;5006637;28;96511;-77
2023/03/20 06:54:22;;;;;;;9.45;2.53;;;;;;;;;;4969823;28;93611;-75
2023/03/20 06:56:49;;;;;;;14.32;2.60;;;;;;;;;;4988304;28;94572;-76
2023/03/20 06:59:16;;;;;;;5.75;2.15;;;;;;;;;;4979255;28;94439;-76
2023/03/20 07:01:43;;;;;;;;;;;;;;;;;;4999091;28;92216;-76
2023/03/20 07:04:09;;;;;;;6.30;2.38;;;;;;;;;;4980507;28;123056;-76
2023/03/20 07:06:43;;;;;;;8.70;2.30;;;;;;;;;;4981063;28;92773;-76
2023/03/20 07:09:10;;;;;;;8.57;2.35;;;;;;;;;;4964249;28;91819;-76
2023/03/20 07:11:37;;;;;;;8.52;2.22;;;;;;;;;;4973091;28;92475;-76
2023/03/20 07:14:04;;;;;;;9.23;2.95;;;;;;;;;;4987759;28;92466;-76
2023/03/20 07:16:42;;;;;;;7.00;2.53;;;;;;;;;;4968165;28;94681;-76
2023/03/20 07:19:09;;;;;;;9.63;2.58;;;;;;;;;;4980054;28;94714;-77
2023/03/20 07:21:39;;;;;;;7.43;2.70;;;;;;;;;;4966933;28;92494;-76
2023/03/20 07:24:08;;;;;;;7.82;2.72;;;;;;;;;;5001584;28;95359;-77
2023/03/20 07:26:35;;;;;;;7.13;2.50;;;;;;;;;;4971700;28;92646;-76
2023/03/20 07:29:01;;;;;;;7.18;2.58;;;;;;;;;;4972566;28;92351;-76
2023/03/20 07:31:28;;;;;;;11.18;3.28;;;;;;;;;;4973301;28;95074;-75
2023/03/20 07:34:07;;;;;;;7.43;2.33;;;;;;;;;;4978054;28;94440;-75
2023/03/20 07:36:34;;;;;;;7.53;2.22;;;;;;;;;;4968078;28;92645;-76
2023/03/20 07:39:00;;;;;;;9.35;3.00;;;;;;;;;;4973488;28;97784;-76
2023/03/20 07:41:28;;;;;;;7.80;2.10;;;;;;;;;;4967967;28;94799;-77
2023/03/20 07:44:00;;;;;;;7.28;2.60;;;;;;;;;;4975189;28;97009;-76
2023/03/20 07:46:53;;;;;;;8.90;2.50;;;;;;;;;;4968449;28;94482;-75
2023/03/20 07:49:22;;;;;;;7.38;2.17;;;;;;;;;;4972357;28;92096;-78
2023/03/20 07:51:49;;;;;;;6.38;2.10;;;;;;;;;;4986064;28;92401;-78
2023/03/20 07:54:16;;;;;;;6.07;2.20;;;;;;;;;;4971557;28;95498;-78
2023/03/20 07:56:42;;;;;;;8.43;2.53;;;;;;;;;;4970962;28;92257;-80
2023/03/20 07:59:09;;;;;;;7.18;2.53;;;;;;;;;;5005261;28;91920;-78
2023/03/20 08:01:35;;;;;;;8.27;2.40;;;;;;;;;;4966223;28;92641;-77
2023/03/20 08:04:02;;;;;;;15.73;2.88;;;;;;;;;;4976592;28;93058;-78
2023/03/20 08:06:28;;;;;;;8.55;2.50;;;;;;;;;;4963628;28;95537;-77
2023/03/20 08:08:57;;;;;;;11.52;2.47;;;;;;;;;;4972999;28;92670;-77
2023/03/20 08:11:24;;;;;;;8.32;2.28;;;;;;;;;;4973848;28;92535;-78
2023/03/20 08:13:50;;;;;;;7.05;2.65;;;;;;;;;;4975864;28;93074;-78
2023/03/20 08:16:20;;;;;;;7.22;2.20;;;;;;;;;;4968029;28;92123;-77
2023/03/20 08:18:46;;;;;;;7.43;2.30;;;;;;;;;;4976058;28;92561;-80
2023/03/20 08:21:12;;;;;;;7.70;2.17;;;;;;;;;;4977297;28;92455;-77
2023/03/20 08:23:40;;;;;;;5.97;2.20;;;;;;;;;;4983869;28;91721;-78
2023/03/20 08:26:07;;;;;;;7.18;2.30;;;;;;;;;;4970614;28;92840;-79
2023/03/20 08:28:34;;;;;;;11.35;2.15;;;;;;;;;;5010307;28;92091;-77
2023/03/20 08:31:17;;;;;;;9.02;2.47;;;;;;;;;;4968569;28;96900;-77
2023/03/20 08:33:45;;;;;;;5.22;2.00;;;;;;;;;;4975310;28;93405;-77
2023/03/20 08:36:14;;;;;;;8.35;1.90;;;;;;;;;;4983183;28;92546;-79
2023/03/20 08:38:41;;;;;;;11.80;2.10;;;;;;;;;;4991376;28;94758;-79
2023/03/20 08:41:08;;;;;;;11.48;2.50;;;;;;;;;;4965279;28;92593;-78
2023/03/20 08:43:35;;;;;;;9.02;2.40;;;;;;;;;;4981748;28;94979;-78
2023/03/20 08:46:01;;;;;;;9.40;2.10;;;;;;;;;;4962467;28;93769;-77
2023/03/20 08:48:28;;;;;;;7.72;2.30;;;;;;;;;;5004735;28;91594;-76
2023/03/20 08:50:54;;;;;;;7.82;2.25;;;;;;;;;;4967707;28;92577;-76
2023/03/20 08:53:21;;;;;;;8.85;2.20;;;;;;;;;;4979097;28;95170;-77
2023/03/20 08:55:48;;;;;;;5.72;2.17;;;;;;;;;;4967054;28;94539;-76
2023/03/20 08:58:15;;;;;;;8.32;2.60;;;;;;;;;;4976717;28;94980;-76
2023/03/20 09:00:42;;;;;;;6.95;2.40;;;;;;;;;;4975598;28;92705;-77
2023/03/20 09:03:13;;;;;;;7.18;2.40;;;;;;;;;;4966567;28;92731;-77
2023/03/20 09:05:40;;;;;;;6.55;2.30;;;;;;;;;;4979227;28;93358;-77
2023/03/20 09:08:07;;;;;;;6.35;2.20;;;;;;;;;;4965984;28;92450;-79
2023/03/20 09:10:34;;;;;;;7.05;2.30;;;;;;;;;;4970034;28;92695;-77
2023/03/20 09:13:00;;;;;;;6.30;2.35;;;;;;;;;;5009998;28;96633;-77
2023/03/20 09:15:41;;;;;;;6.05;2.00;;;;;;;;;;4974729;28;92107;-77
2023/03/20 09:18:07;;;;;;;6.28;2.08;;;;;;;;;;4973644;28;92867;-76
2023/03/20 09:20:34;;;;;;;6.72;2.20;;;;;;;;;;5004505;28;96910;-76
2023/03/20 09:23:01;;;;;;;5.07;2.00;;;;;;;;;;4979753;28;92555;-75
2023/03/20 09:25:27;;;;;;;5.88;2.40;;;;;;;;;;4970192;28;92947;-79
2023/03/20 09:27:54;;;;;;;7.22;2.67;;;;;;;;;;4975253;28;92387;-77
2023/03/20 09:30:22;;;;;;;6.50;2.30;;;;;;;;;;4971565;28;93418;-78
2023/03/20 09:32:49;;;;;;;7.22;2.45;;;;;;;;;;5001710;28;93567;-77
2023/03/20 09:35:16;;;;;;;12.43;2.35;;;;;;;;;;4978431;28;92149;-76
2023/03/20 09:37:44;;;;;;;5.13;2.22;;;;;;;;;;4974951;28;92816;-77
2023/03/20 09:40:19;;;;;;;4.43;1.80;;;;;;;;;;4975970;28;94475;-77
2023/03/20 09:42:54;;;;;;;6.80;2.20;;;;;;;;;;4979186;28;92060;-77
2023/03/20 09:45:41;;;;;;;6.55;2.22;;;;;;;;;;4981837;28;95377;-77
2023/03/20 09:48:17;;;;;;;6.03;2.22;;;;;;;;;;4971218;28;92437;-78
2023/03/20 09:50:57;;;;;;;5.70;2.15;;;;;;;;;;4995559;28;92904;-78
2023/03/20 09:53:26;;;;;;;6.05;2.20;;;;;;;;;;4982616;28;93570;-76
2023/03/20 09:55:54;;;;;;;5.50;2.05;;;;;;;;;;4966779;28;92856;-76
2023/03/20 09:58:32;;;;;;;6.32;2.08;;;;;;;;;;4989709;28;94716;-75
2023/03/20 10:00:59;;;;;;;6.03;2.03;;;;;;;;;;4974366;28;92815;-75
2023/03/20 10:03:30;;;;;;;6.32;2.00;;;;;;;;;;4986826;28;91739;-76
2023/03/20 10:06:02;;;;;;;5.13;1.90;;;;;;;;;;4968774;28;93776;-75
2023/03/20 10:08:32;;;;;;;5.50;2.20;;;;;;;;;;4965896;28;93059;-75
2023/03/20 10:11:05;;;;;;;4.35;1.95;;;;;;;;;;4961462;28;94958;-76
2023/03/20 10:13:38;;;;;;;4.35;1.80;;;;;;;;;;5006196;28;92812;-75
2023/03/20 10:16:13;;;;;;;5.80;1.77;;;;;;;;;;4965878;28;92703;-76
2023/03/20 10:18:45;;;;;;;4.68;1.98;;;;;;;;;;4974629;28;92488;-76
2023/03/20 10:21:17;;;;;;;4.50;1.70;;;;;;;;;;4973114;28;93272;-74
2023/03/20 10:23:46;;;;;;;5.90;1.70;;;;;;;;;;4983160;28;92413;-75
2023/03/20 10:26:14;;;;;;;5.72;2.10;;;;;;;;;;4975753;28;92761;-76
2023/03/20 10:29:10;;;;;;;5.10;1.90;;;;;;;;;;4980109;28;92911;-76
2023/03/20 10:31:41;;;;;;;4.47;1.70;;;;;;;;;;4967456;28;92269;-76
2023/03/20 10:34:11;;;;;;;4.25;1.85;;;;;;;;;;4978343;28;92956;-75
2023/03/20 10:36:43;;;;;;;5.70;2.03;;;;;;;;;;4963140;28;94982;-76
2023/03/20 10:39:12;;;;;;;4.88;1.80;;;;;;;;;;4967945;28;94705;-76
2023/03/20 10:41:41;;;;;;;7.03;1.95;;;;;;;;;;4982024;28;94171;-77
2023/03/20 10:44:13;;;;;;;5.43;1.92;;;;;;;;;;4965364;28;92401;-75
2023/03/20 10:46:42;;;;;;;5.43;1.80;;;;;;;;;;4959575;28;92395;-73
2023/03/20 10:49:13;;;;;;;6.10;1.80;;;;;;;;;;4963127;28;93812;-75
2023/03/20 10:51:58;;;;;;;6.85;1.80;;;;;;;;;;4970180;28;92872;-75
2023/03/20 10:54:36;;;;;;;5.15;1.80;;;;;;;;;;4963148;28;93108;-75
2023/03/20 10:57:04;;;;;;;5.63;1.90;;;;;;;;;;4967795;28;92273;-74
2023/03/20 10:59:36;;;;;;;4.72;1.60;;;;;;;;;;4963974;28;92504;-74
2023/03/20 11:02:12;;;;;;;4.05;1.55;;;;;;;;;;4965387;28;95232;-76
2023/03/20 11:04:39;;;;;;;5.28;1.70;;;;;;;;;;4978705;28;92346;-76
2023/03/20 11:07:25;;;;;;;5.25;1.90;;;;;;;;;;4973254;28;93487;-76
2023/03/20 11:10:04;;;;;;;4.53;1.70;;;;;;;;;;4965914;28;92745;-76
2023/03/20 11:12:31;;;;;;;7.00;1.90;;;;;;;;;;4966516;28;92451;-76
2023/03/20 11:14:59;;;;;;;5.20;1.85;;;;;;;;;;4967284;28;93374;-76
2023/03/20 11:17:28;;;;;;;6.13;1.83;;;;;;;;;;4973603;28;92196;-75
2023/03/20 11:20:01;;;;;;;5.25;1.80;;;;;;;;;;5001467;28;95136;-76
2023/03/20 11:22:28;;;;;;;;;;;;;;;;;;4968539;28;93303;-75
2023/03/20 11:24:57;;;;;;;5.18;2.00;;;;;;;;;;5002993;28;118403;-75
2023/03/20 11:27:25;;;;;;;6.43;2.00;;;;;;;;;;4978661;28;95026;-76
2023/03/20 11:29:52;;;;;;;6.28;1.85;;;;;;;;;;4977180;28;92724;-76
2023/03/20 11:32:28;;;;;;;5.88;2.33;;;;;;;;;;4973391;28;92574;-76
2023/03/20 11:34:57;;;;;;;6.35;1.88;;;;;;;;;;4972434;28;95014;-76
2023/03/20 11:37:27;;;;;;;7.45;1.90;;;;;;;;;;4973465;28;93220;-76
2023/03/20 11:39:56;;;;;;;7.15;2.20;;;;;;;;;;4968614;28;94698;-75
2023/03/20 11:42:23;;;;;;;6.20;2.00;;;;;;;;;;4975120;28;93297;-76
2023/03/20 11:45:14;;;;;;;7.20;2.13;;;;;;;;;;4951565;28;91536;-76
2023/03/20 11:47:41;;;;;;;8.45;2.20;;;;;;;;;;4982065;28;94059;-74
2023/03/20 11:50:26;;;;;;;8.48;2.30;;;;;;;;;;4967088;28;92619;-75
2023/03/20 11:52:53;;;;;;;7.63;2.10;;;;;;;;;;4964503;28;95153;-75
2023/03/20 11:55:27;;;;;;;4.82;1.80;;;;;;;;;;4974521;28;94852;-75
2023/03/20 11:58:02;;;;;;;7.45;2.20;;;;;;;;;;4965232;28;92930;-76
2023/03/20 12:00:34;;;;;;;7.10;2.00;;;;;;;;;;4962947;28;92203;-76
2023/03/20 12:03:02;;;;;;;9.38;2.10;;;;;;;;;;4960055;28;97255;-74
2023/03/20 12:05:38;;;;;;;8.40;2.22;;;;;;;;;;4970324;28;92314;-75
2023/03/20 12:08:07;;;;;;;5.63;2.20;;;;;;;;;;4960003;28;94291;-74
2023/03/20 12:10:38;;;;;;;8.50;2.10;;;;;;;;;;4965671;28;94826;-74
2023/03/20 12:13:11;;;;;;;8.05;2.20;;;;;;;;;;4963044;28;92444;-75
2023/03/20 12:15:39;;;;;;;9.65;2.30;;;;;;;;;;4969206;28;92628;-75
2023/03/20 12:18:10;;;;;;;6.15;2.00;;;;;;;;;;4969714;28;95072;-76
2023/03/20 12:20:40;;;;;;;9.52;2.40;;;;;;;;;;4993638;28;92431;-75
2023/03/20 12:23:06;;;;;;;7.95;2.50;;;;;;;;;;4987226;28;92433;-75
2023/03/20 12:25:38;;;;;;;8.13;2.30;;;;;;;;;;4964143;28;92711;-75
2023/03/20 12:28:10;;;;;;;7.70;2.25;;;;;;;;;;4967519;28;94932;-75
2023/03/20 12:30:46;;;;;;;5.97;2.20;;;;;;;;;;4970693;28;93234;-76
2023/03/20 12:33:21;;;;;;;6.03;2.25;;;;;;;;;;4967678;28;92398;-75
2023/03/20 12:35:49;;;;;;;6.25;2.38;;;;;;;;;;4970880;28;92881;-75
2023/03/20 12:38:22;;;;;;;10.85;2.40;;;;;;;;;;4975772;28;93675;-75
2023/03/20 12:40:50;;;;;;;9.40;2.45;;;;;;;;;;4984840;28;92489;-75
2023/03/20 12:43:28;;;;;;;12.93;2.63;;;;;;;;;;4974395;28;94448;-75
2023/03/20 12:46:02;;;;;;;9.13;2.30;;;;;;;;;;4982790;28;93175;-75
2023/03/20 12:48:32;;;;;;;9.20;2.50;;;;;;;;;;4995669;28;92557;-76
2023/03/20 12:51:10;;;;;;;10.73;2.50;;;;;;;;;;4981839;28;92696;-75
2023/03/20 12:53:47;;;;;;;8.55;2.53;;;;;;;;;;4977527;28;92955;-76
2023/03/20 12:56:32;;;;;;;7.95;2.42;;;;;;;;;;4981250;28;93161;-75
2023/03/20 12:59:10;;;;;;;10.65;2.40;;;;;;;;;;4995070;28;95214;-74
2023/03/20 13:01:46;;;;;;;7.40;2.50;;;;;;;;;;4982907;28;91338;-75
2023/03/20 13:04:19;;;;;;;8.00;2.20;;;;;;;;;;4979155;28;92713;-74
2023/03/20 13:06:45;;;;;;;;;;;;;;;;;;4997326;28;92801;-75
2023/03/20 13:09:15;;;;;;;8.05;2.42;;;;;;;;;;4984686;28;99433;-75
2023/03/20 13:12:00;;;;;;;6.18;2.05;;;;;;;;;;5000040;28;93340;-75
2023/03/20 13:14:33;;;;;;;7.68;2.00;;;;;;;;;;5002445;28;92378;-75
2023/03/20 13:17:03;;;;;;;6.45;2.20;;;;;;;;;;4975657;28;92745;-74
2023/03/20 13:19:45;;;;;;;8.77;2.30;;;;;;;;;;4979012;28;93339;-76
2023/03/20 13:22:19;;;;;;;11.95;2.38;;;;;;;;;;4971906;28;92285;-76
2023/03/20 13:24:48;;;;;;;8.10;2.30;;;;;;;;;;4979491;28;92783;-76
2023/03/20 13:27:14;;;;;;;10.40;2.40;;;;;;;;;;4978911;28;91935;-75
2023/03/20 13:29:49;;;;;;;16.58;2.33;;;;;;;;;;4981703;28;92759;-74
2023/03/20 13:32:25;;;;;;;10.52;2.30;;;;;;;;;;4978134;28;92549;-75
2023/03/20 13:35:01;;;;;;;6.78;2.35;;;;;;;;;;4968167;28;94992;-75
2023/03/20 13:37:34;;;;;;;9.10;2.40;;;;;;;;;;4973310;28;94894;-75
2023/03/20 13:40:07;;;;;;;6.57;2.20;;;;;;;;;;4977157;28;92829;-75
2023/03/20 13:42:36;;;;;;;10.40;2.22;;;;;;;;;;4965487;28;92135;-76
2023/03/20 13:45:16;;;;;;;5.72;2.05;;;;;;;;;;4961605;28;97371;-77
2023/03/20 13:47:44;;;;;;;7.25;2.40;;;;;;;;;;4953492;28;92740;-75
2023/03/20 13:50:10;;;;;;;6.97;2.30;;;;;;;;;;4953406;28;92429;-75
2023/03/20 13:52:41;;;;;;;5.75;2.20;;;;;;;;;;4956754;28;92639;-76
2023/03/20 13:55:14;;;;;;;8.23;2.22;;;;;;;;;;4951934;28;94339;-75
2023/03/20 13:58:02;;;;;;;7.05;2.38;;;;;;;;;;4956072;28;92257;-75
2023/03/20 14:00:41;;;;;;;5.90;2.05;;;;;;;;;;4951868;28;95093;-75
2023/03/20 14:03:10;;;;;;;5.00;2.20;;;;;;;;;;4953869;28;92163;-74
2023/03/20 14:05:38;;;;;;;8.00;2.40;;;;;;;;;;4954391;28;93092;-75
2023/03/20 14:08:21;;;;;;;6.00;2.50;;;;;;;;;;4957048;28;94194;-75
2023/03/20 14:10:54;;;;;;;5.38;1.95;;;;;;;;;;4959842;28;92462;-74
2023/03/20 14:13:21;;;;;;;7.28;2.47;;;;;;;;;;4946927;28;93809;-75
2023/03/20 14:15:50;;;;;;;6.68;2.08;;;;;;;;;;4957189;28;93014;-75
2023/03/20 14:18:20;;;;;;;7.22;2.20;;;;;;;;;;4953433;28;93471;-75
2023/03/20 14:20:54;;;;;;;5.30;2.15;;;;;;;;;;4958319;28;92798;-75
2023/03/20 14:23:35;;;;;;;5.85;2.00;;;;;;;;;;4951220;28;92186;-75
2023/03/20 14:26:21;;;;;;;6.50;2.28;;;;;;;;;;4954326;28;94844;-75
2023/03/20 14:28:59;;;;;;;6.50;2.30;;;;;;;;;;4972755;28;94862;-74
2023/03/20 14:31:36;;;;;;;5.28;2.05;;;;;;;;;;4960408;28;92655;-74
2023/03/20 14:34:12;;;;;;;5.18;1.83;;;;;;;;;;4953500;28;93156;-75
2023/03/20 14:36:45;;;;;;;6.07;2.20;;;;;;;;;;4955121;28;92668;-75
2023/03/20 14:39:17;;;;;;;6.10;2.13;;;;;;;;;;4963174;28;92334;-75
2023/03/20 14:42:02;;;;;;;6.68;2.40;;;;;;;;;;4959620;28;93514;-75
2023/03/20 14:44:37;;;;;;;5.80;1.98;;;;;;;;;;4975318;28;91910;-75
2023/03/20 14:47:14;;;;;;;9.00;2.25;;;;;;;;;;4962362;28;96472;-75
2023/03/20 14:49:41;;;;;;;6.47;2.10;;;;;;;;;;4960396;28;93332;-75
2023/03/20 14:52:22;;;;;;;6.00;1.92;;;;;;;;;;4959523;28;94686;-76
2023/03/20 14:54:55;;;;;;;5.85;2.28;;;;;;;;;;4960062;28;95081;-75
2023/03/20 14:57:32;;;;;;;7.55;2.40;;;;;;;;;;4960494;28;94287;-76
2023/03/20 15:00:21;;;;;;;5.65;2.10;;;;;;;;;;4959511;28;92409;-76
2023/03/20 15:02:50;;;;;;;6.43;2.30;;;;;;;;;;4963245;28;92740;-75
2023/03/20 15:05:24;;;;;;;5.40;2.22;;;;;;;;;;4959570;28;92791;-75
2023/03/20 15:07:51;;;;;;;6.32;2.30;;;;;;;;;;4961079;28;92517;-76
2023/03/20 15:10:18;;;;;;;5.03;2.05;;;;;;;;;;4975640;28;91932;-77
2023/03/20 15:12:45;;;;;;;7.20;2.58;;;;;;;;;;4974243;28;92498;-76